createdAt,value
2019-04-26T00:01:54.141Z,6.77
2019-04-26T00:04:22.246Z,7.80
2019-04-26T00:06:50.401Z,6.77
2019-04-26T00:09:37.763Z,7.33
2019-04-26T00:12:16.486Z,7.70
2019-04-26T00:15:10.272Z,6.70
2019-04-26T00:17:43.938Z,7.17
2019-04-26T00:20:12.908Z,6.87
2019-04-26T00:22:40.837Z,7.17
2019-04-26T00:25:09.976Z,7.20
2019-04-26T00:27:39.094Z,6.97
2019-04-26T00:30:08.104Z,7.47
2019-04-26T00:32:36.484Z,6.97
2019-04-26T00:35:05.362Z,7.47
2019-04-26T00:37:33.768Z,7.43
2019-04-26T00:40:01.961Z,7.03
2019-04-26T00:42:31.361Z,6.47
2019-04-26T00:44:59.673Z,6.80
2019-04-26T00:47:28.603Z,7.13
2019-04-26T00:49:57.599Z,6.43
2019-04-26T00:52:26.926Z,7.30
2019-04-26T00:54:56.248Z,7.67
2019-04-26T00:57:24.945Z,8.17
2019-04-26T00:59:53.308Z,8.00
2019-04-26T01:02:28.189Z,7.70
2019-04-26T01:04:56.540Z,6.67
2019-04-26T01:07:25.340Z,7.00
2019-04-26T01:09:53.719Z,8.20
2019-04-26T01:12:21.990Z,7.43
2019-04-26T01:14:50.696Z,7.30
2019-04-26T01:17:20.331Z,8.27
2019-04-26T01:19:49.505Z,7.07
2019-04-26T01:22:23.370Z,7.00
2019-04-26T01:24:54.358Z,7.77
2019-04-26T01:27:25.547Z,8.40
2019-04-26T01:29:58.086Z,8.10
2019-04-26T01:32:29.373Z,7.57
2019-04-26T01:34:57.881Z,7.57
2019-04-26T01:37:26.919Z,7.77
2019-04-26T01:40:00.946Z,7.93
2019-04-26T01:42:57.904Z,8.07
2019-04-26T01:45:32.150Z,8.03
2019-04-26T01:48:04.811Z,7.63
2019-04-26T01:50:34.936Z,6.83
2019-04-26T01:53:04.377Z,8.63
2019-04-26T01:55:32.443Z,7.67
2019-04-26T01:58:03.206Z,8.23
2019-04-26T02:00:56.775Z,7.23
2019-04-26T02:03:27.807Z,8.23
2019-04-26T02:05:55.917Z,7.87
2019-04-26T02:08:24.548Z,7.87
2019-04-26T02:10:52.798Z,8.10
2019-04-26T02:13:21.208Z,7.87
2019-04-26T02:15:49.413Z,8.07
2019-04-26T02:18:17.378Z,8.20
2019-04-26T02:21:19.202Z,8.37
2019-04-26T02:24:18.658Z,9.33
2019-04-26T02:26:47.944Z,8.20
2019-04-26T02:29:25.080Z,8.47
2019-04-26T02:31:56.934Z,8.97
2019-04-26T02:34:27.971Z,7.93
2019-04-26T02:36:59.245Z,8.37
2019-04-26T02:39:34.088Z,8.47
2019-04-26T02:42:05.534Z,8.30
2019-04-26T02:44:53.940Z,8.30
2019-04-26T02:47:47.801Z,8.23
2019-04-26T02:50:22.134Z,8.70
2019-04-26T02:53:28.820Z,8.20
2019-04-26T02:56:15.459Z,8.03
2019-04-26T02:59:15.634Z,8.67
2019-04-26T03:01:43.805Z,8.93
2019-04-26T03:04:12.430Z,8.83
2019-04-26T03:06:43.631Z,7.80
2019-04-26T03:09:14.546Z,8.17
2019-04-26T03:11:46.122Z,7.87
2019-04-26T03:14:34.986Z,8.37
2019-04-26T03:17:12.237Z,8.50
2019-04-26T03:19:55.408Z,8.70
2019-04-26T03:22:53.826Z,8.60
2019-04-26T03:25:32.823Z,8.47
2019-04-26T03:28:48.978Z,8.07
2019-04-26T03:31:38.959Z,8.63
2019-04-26T03:34:24.880Z,8.00
2019-04-26T03:38:01.880Z,7.67
2019-04-26T03:40:49.019Z,8.20
2019-04-26T03:43:53.996Z,8.20
2019-04-26T03:46:45.446Z,8.83
2019-04-26T03:49:41.403Z,8.03
2019-04-26T03:52:27.616Z,8.70
2019-04-26T03:55:00.122Z,8.60
2019-04-26T03:57:44.851Z,8.93
2019-04-26T04:00:37.191Z,8.73
2019-04-26T04:03:19.822Z,8.50
2019-04-26T04:05:51.409Z,8.63
2019-04-26T04:08:25.462Z,8.13
2019-04-26T04:10:59.963Z,8.80
2019-04-26T04:13:55.586Z,9.13
2019-04-26T04:16:46.749Z,8.53
2019-04-26T04:19:37.275Z,8.20
2019-04-26T04:22:09.592Z,8.10
2019-04-26T04:24:53.533Z,8.20
2019-04-26T04:27:29.145Z,8.70
2019-04-26T04:30:12.922Z,7.77
2019-04-26T04:33:00.163Z,8.20
2019-04-26T04:35:31.807Z,8.20
2019-04-26T04:38:09.815Z,8.27
2019-04-26T04:41:31.143Z,8.47
2019-04-26T04:45:19.264Z,7.90
2019-04-26T04:48:28.231Z,7.93
2019-04-26T04:51:40.857Z,7.80
2019-04-26T04:54:20.611Z,8.23
2019-04-26T04:57:09.274Z,7.97
2019-04-26T05:00:01.387Z,8.40
2019-04-26T05:03:02.222Z,7.70
2019-04-26T05:06:07.240Z,8.07
2019-04-26T05:08:51.189Z,8.57
2019-04-26T05:11:28.257Z,8.10
2019-04-26T05:14:09.037Z,8.57
2019-04-26T05:17:14.389Z,8.60
2019-04-26T05:19:54.923Z,8.30
2019-04-26T05:23:02.352Z,9.20
2019-04-26T05:26:58.369Z,9.50
2019-04-26T05:30:20.569Z,8.33
2019-04-26T05:33:02.225Z,7.93
2019-04-26T05:36:03.635Z,8.77
2019-04-26T05:39:10.413Z,8.60
2019-04-26T05:42:23.121Z,8.87
2019-04-26T05:45:49.991Z,8.93
2019-04-26T05:48:51.927Z,11.97
2019-04-26T05:52:13.539Z,19.13
2019-04-26T05:55:10.893Z,27.13
2019-04-26T05:57:58.921Z,21.00
2019-04-26T06:01:06.675Z,16.70
2019-04-26T06:04:18.156Z,12.33
2019-04-26T06:07:33.446Z,13.57
2019-04-26T06:10:31.941Z,14.57
2019-04-26T06:13:29.307Z,17.33
2019-04-26T06:16:12.078Z,18.00
2019-04-26T06:19:05.094Z,16.93
2019-04-26T06:22:07.568Z,14.77
2019-04-26T06:25:06.790Z,12.67
2019-04-26T06:27:54.553Z,11.60
2019-04-26T06:31:06.039Z,12.07
2019-04-26T06:34:13.699Z,14.07
2019-04-26T06:37:21.561Z,13.53
2019-04-26T06:40:08.811Z,12.40
2019-04-26T06:43:09.651Z,12.27
2019-04-26T06:46:35.600Z,11.53
2019-04-26T06:50:15.007Z,11.67
2019-04-26T06:53:04.660Z,10.77
2019-04-26T06:55:47.764Z,11.20
2019-04-26T06:58:52.457Z,11.17
2019-04-26T07:01:34.026Z,11.57
2019-04-26T07:04:29.027Z,10.83
2019-04-26T07:07:24.595Z,11.60
2019-04-26T07:10:08.890Z,11.90
2019-04-26T07:12:56.950Z,12.07
2019-04-26T07:15:48.618Z,10.97
2019-04-26T07:18:51.418Z,11.23
2019-04-26T07:21:51.940Z,12.23
2019-04-26T07:25:09.805Z,11.27
2019-04-26T07:28:19.055Z,12.07
2019-04-26T07:31:02.595Z,11.17
2019-04-26T07:34:07.303Z,10.83
2019-04-26T07:37:15.534Z,11.93
2019-04-26T07:40:45.772Z,8.97
2019-04-26T07:43:42.306Z,9.13
2019-04-26T07:46:42.132Z,8.70
2019-04-26T07:49:52.071Z,7.70
2019-04-26T07:53:03.248Z,8.13
2019-04-26T07:56:00.728Z,9.67
2019-04-26T07:59:04.483Z,8.47
2019-04-26T08:02:09.035Z,9.10
2019-04-26T08:04:42.732Z,8.67
2019-04-26T08:07:18.169Z,8.10
2019-04-26T08:09:59.924Z,7.80
2019-04-26T08:12:30.823Z,9.53
2019-04-26T08:15:40.951Z,7.73
2019-04-26T08:18:20.630Z,7.40
2019-04-26T08:20:55.322Z,7.40
2019-04-26T08:23:41.900Z,8.20
2019-04-26T08:26:11.183Z,8.40
2019-04-26T08:28:42.279Z,9.20
2019-04-26T08:31:15.507Z,8.73
2019-04-26T08:33:50.917Z,9.37
2019-04-26T08:36:23.202Z,8.33
2019-04-26T08:38:54.034Z,8.17
2019-04-26T08:41:24.199Z,8.23
2019-04-26T08:44:18.572Z,8.80
2019-04-26T08:47:16.090Z,8.30
2019-04-26T08:50:03.177Z,7.17
2019-04-26T08:52:47.222Z,7.43
2019-04-26T08:55:18.695Z,6.53
2019-04-26T08:57:49.749Z,5.17
2019-04-26T09:00:46.646Z,5.00
2019-04-26T09:03:49.281Z,4.60
2019-04-26T09:06:51.811Z,4.40
2019-04-26T09:09:36.903Z,4.07
2019-04-26T09:12:23.297Z,4.43
2019-04-26T09:15:36.050Z,4.73
2019-04-26T09:18:19.398Z,4.50
2019-04-26T09:21:02.332Z,4.43
2019-04-26T09:23:59.060Z,4.30
2019-04-26T09:26:48.427Z,4.07
2019-04-26T09:29:30.441Z,3.70
2019-04-26T09:32:24.101Z,3.13
2019-04-26T09:35:11.262Z,3.27
2019-04-26T09:37:49.704Z,2.80
2019-04-26T09:40:52.462Z,3.30
2019-04-26T09:43:23.549Z,3.03
2019-04-26T09:46:25.387Z,3.03
2019-04-26T09:49:23.384Z,3.10
2019-04-26T09:52:11.287Z,3.43
2019-04-26T09:54:58.586Z,2.97
2019-04-26T09:57:39.070Z,3.10
2019-04-26T10:00:30.238Z,3.50
2019-04-26T10:03:16.638Z,3.10
2019-04-26T10:06:00.029Z,3.17
2019-04-26T10:08:46.721Z,3.03
2019-04-26T10:11:33.479Z,3.30
2019-04-26T10:14:31.223Z,3.50
2019-04-26T10:17:21.310Z,3.50
2019-04-26T10:19:51.276Z,3.37
2019-04-26T10:22:19.436Z,3.47
2019-04-26T10:25:16.348Z,3.77
2019-04-26T10:27:51.075Z,6.30
2019-04-26T10:30:28.706Z,5.83
2019-04-26T10:32:58.402Z,5.93
2019-04-26T10:35:26.712Z,6.03
2019-04-26T10:38:08.878Z,6.00
2019-04-26T10:40:51.646Z,5.63
2019-04-26T10:43:19.640Z,5.13
2019-04-26T10:46:02.352Z,4.20
2019-04-26T10:48:45.443Z,4.23
2019-04-26T10:51:34.083Z,3.73
2019-04-26T10:54:09.191Z,4.13
2019-04-26T10:57:05.616Z,4.80
2019-04-26T10:59:47.390Z,4.53
2019-04-26T11:02:18.225Z,4.13
2019-04-26T11:04:46.277Z,4.53
2019-04-26T11:07:14.547Z,4.73
2019-04-26T11:09:42.669Z,4.33
2019-04-26T11:12:13.861Z,4.47
2019-04-26T11:15:06.173Z,5.20
2019-04-26T11:17:33.094Z,5.83
2019-04-26T11:20:01.110Z,4.73
2019-04-26T11:22:29.685Z,4.90
2019-04-26T11:24:59.011Z,4.77
2019-04-26T11:27:27.850Z,5.47
2019-04-26T11:30:00.069Z,4.93
2019-04-26T11:32:41.032Z,5.30
2019-04-26T11:35:09.696Z,4.53
2019-04-26T11:38:13.028Z,5.17
2019-04-26T11:41:05.822Z,4.90
2019-04-26T11:43:40.309Z,4.87
2019-04-26T11:46:29.149Z,5.33
2019-04-26T11:49:11.869Z,5.33
2019-04-26T11:51:58.568Z,4.70
2019-04-26T11:54:23.578Z,5.47
2019-04-26T11:56:54.885Z,4.90
2019-04-26T11:59:22.993Z,5.03
2019-04-26T12:02:33.036Z,4.90
2019-04-26T12:05:30.756Z,5.07
2019-04-26T12:08:13.752Z,6.10
2019-04-26T12:11:03.601Z,7.67
2019-04-26T12:13:59.548Z,7.90
2019-04-26T12:16:25.950Z,6.47
2019-04-26T12:18:53.968Z,7.30
2019-04-26T12:21:22.029Z,8.00
2019-04-26T12:23:54.926Z,7.23
2019-04-26T12:26:21.774Z,7.33
2019-04-26T12:28:50.354Z,6.10
2019-04-26T12:31:18.290Z,5.67
2019-04-26T12:33:46.349Z,5.50
2019-04-26T12:36:14.469Z,5.67
2019-04-26T12:38:42.497Z,4.97
2019-04-26T12:41:11.657Z,4.03
2019-04-26T12:43:40.028Z,3.40
2019-04-26T12:46:15.589Z,4.10
2019-04-26T12:48:45.989Z,4.20
2019-04-26T12:51:13.879Z,4.90
2019-04-26T12:53:41.928Z,3.77
2019-04-26T12:56:10.051Z,3.63
2019-04-26T12:58:38.070Z,4.07
2019-04-26T13:01:12.148Z,3.87
2019-04-26T13:03:38.011Z,4.13
2019-04-26T13:06:09.279Z,4.17
2019-04-26T13:08:38.111Z,3.70
2019-04-26T13:11:31.848Z,2.90
2019-04-26T13:14:38.761Z,2.37
2019-04-26T13:17:06.779Z,2.40
2019-04-26T13:19:34.990Z,2.60
2019-04-26T13:22:03.446Z,2.77
2019-04-26T13:24:39.800Z,3.03
2019-04-26T13:27:10.634Z,2.50
2019-04-26T13:29:38.448Z,2.67
2019-04-26T13:32:07.498Z,3.40
2019-04-26T13:34:37.244Z,2.57
2019-04-26T13:37:06.844Z,2.40
2019-04-26T13:39:51.199Z,2.77
2019-04-26T13:42:33.033Z,2.63
2019-04-26T13:45:26.845Z,2.50
2019-04-26T13:48:27.978Z,2.23
2019-04-26T13:51:02.463Z,2.67
2019-04-26T13:53:31.265Z,2.43
2019-04-26T13:56:01.937Z,2.67
2019-04-26T13:58:29.045Z,3.10
2019-04-26T14:00:57.038Z,2.50
2019-04-26T14:03:27.172Z,2.40
2019-04-26T14:05:55.740Z,2.80
2019-04-26T14:08:23.700Z,2.83
2019-04-26T14:10:55.153Z,3.00
2019-04-26T14:13:24.929Z,2.53
2019-04-26T14:16:06.306Z,2.30
2019-04-26T14:18:39.163Z,2.70
2019-04-26T14:21:05.261Z,2.90
2019-04-26T14:23:53.963Z,2.50
2019-04-26T14:26:26.989Z,2.30
2019-04-26T14:28:58.107Z,2.60
2019-04-26T14:31:25.047Z,2.43
2019-04-26T14:33:53.570Z,2.67
2019-04-26T14:36:22.637Z,2.30
2019-04-26T14:38:51.523Z,2.07
2019-04-26T14:41:22.561Z,2.50
2019-04-26T14:43:52.668Z,1.83
2019-04-26T14:46:18.982Z,2.00
2019-04-26T14:49:00.592Z,2.00
2019-04-26T14:51:18.650Z,2.20
2019-04-26T14:53:46.854Z,2.50
2019-04-26T14:56:30.828Z,2.77
2019-04-26T14:59:12.263Z,2.60
2019-04-26T15:02:13.267Z,2.50
2019-04-26T15:05:09.047Z,2.20
2019-04-26T15:07:51.371Z,2.40
2019-04-26T15:10:45.734Z,2.70
2019-04-26T15:13:17.228Z,2.20
2019-04-26T15:16:14.489Z,2.73
2019-04-26T15:18:42.639Z,2.37
2019-04-26T15:21:12.722Z,2.87
2019-04-26T15:23:40.610Z,2.30
2019-04-26T15:26:08.483Z,2.30
2019-04-26T15:28:36.442Z,2.20
2019-04-26T15:31:04.590Z,2.63
2019-04-26T15:33:33.466Z,2.17
2019-04-26T15:36:06.025Z,2.40
2019-04-26T15:38:34.890Z,2.53
2019-04-26T15:41:27.290Z,2.60
2019-04-26T15:44:28.260Z,2.70
2019-04-26T15:47:20.761Z,2.23
2019-04-26T15:49:55.701Z,2.40
2019-04-26T15:52:24.017Z,2.73
2019-04-26T15:55:06.752Z,3.03
2019-04-26T15:57:48.926Z,2.40
2019-04-26T16:00:32.792Z,3.00
2019-04-26T16:03:14.834Z,2.90
2019-04-26T16:05:59.179Z,2.90
2019-04-26T16:08:42.535Z,3.00
2019-04-26T16:11:11.307Z,2.73
2019-04-26T16:14:02.159Z,2.40
2019-04-26T16:16:32.450Z,2.73
2019-04-26T16:19:13.535Z,2.50
2019-04-26T16:21:55.387Z,3.37
2019-04-26T16:24:37.693Z,2.83
2019-04-26T16:27:19.283Z,3.03
2019-04-26T16:29:59.554Z,3.17
2019-04-26T16:32:58.949Z,2.83
2019-04-26T16:35:28.239Z,2.30
2019-04-26T16:37:59.963Z,3.30
2019-04-26T16:40:26.387Z,3.03
2019-04-26T16:42:56.636Z,3.13
2019-04-26T16:45:24.076Z,3.30
2019-04-26T16:47:53.147Z,2.80
2019-04-26T16:50:23.946Z,2.93
2019-04-26T16:52:50.978Z,3.10
2019-04-26T16:55:21.292Z,2.90
2019-04-26T16:58:06.264Z,3.37
2019-04-26T17:00:50.193Z,2.80
2019-04-26T17:03:08.072Z,3.50
2019-04-26T17:08:09.970Z,2.80
2019-04-26T17:09:50.938Z,2.90
2019-04-26T17:10:34.380Z,2.77
2019-04-26T17:13:03.189Z,2.80
2019-04-26T17:16:22.459Z,2.80
2019-04-26T17:18:46.652Z,2.73
2019-04-26T17:21:17.563Z,2.53
2019-04-26T17:23:55.540Z,2.90
2019-04-26T17:26:33.600Z,3.27
2019-04-26T17:28:59.773Z,2.77
2019-04-26T17:31:27.816Z,2.70
2019-04-26T17:33:55.796Z,2.87
2019-04-26T17:36:23.900Z,2.60
2019-04-26T17:38:51.747Z,2.70
2019-04-26T17:41:19.640Z,3.07
2019-04-26T17:43:52.026Z,2.67
2019-04-26T17:46:18.167Z,2.53
2019-04-26T17:48:49.237Z,3.20
2019-04-26T17:51:19.425Z,3.40
2019-04-26T17:53:47.967Z,3.33
2019-04-26T17:56:16.898Z,3.57
2019-04-26T17:58:54.408Z,3.50
2019-04-26T18:01:39.021Z,3.00
2019-04-26T18:03:51.255Z,3.23
2019-04-26T18:06:15.521Z,3.23
2019-04-26T18:08:51.961Z,3.20
2019-04-26T18:11:19.537Z,3.10
2019-04-26T18:13:51.242Z,2.67
2019-04-26T18:16:46.797Z,3.37
2019-04-26T18:19:30.348Z,3.27
2019-04-26T18:22:07.771Z,3.17
2019-04-26T18:24:35.768Z,3.37
2019-04-26T18:27:04.039Z,3.00
2019-04-26T18:29:33.657Z,3.20
2019-04-26T18:32:03.701Z,3.00
2019-04-26T18:34:37.221Z,3.13
2019-04-26T18:37:04.103Z,3.43
2019-04-26T18:39:31.215Z,3.17
2019-04-26T18:42:02.931Z,3.50
2019-04-26T18:44:38.433Z,3.23
2019-04-26T18:47:37.819Z,3.43
2019-04-26T18:50:06.794Z,3.43
2019-04-26T18:52:37.340Z,3.20
2019-04-26T18:55:29.252Z,3.30
2019-04-26T18:58:01.371Z,3.90
2019-04-26T19:00:30.516Z,7.83
2019-04-26T19:03:00.044Z,7.80
2019-04-26T19:05:30.062Z,6.20
2019-04-26T19:07:58.058Z,9.57
2019-04-26T19:10:29.230Z,7.23
2019-04-26T19:13:00.153Z,4.73
2019-04-26T19:16:03.794Z,5.00
2019-04-26T19:18:51.865Z,4.60
2019-04-26T19:22:20.365Z,3.97
2019-04-26T19:24:49.349Z,3.87
2019-04-26T19:27:22.315Z,4.53
2019-04-26T19:29:48.681Z,5.20
2019-04-26T19:32:16.812Z,5.20
2019-04-26T19:34:44.920Z,6.50
2019-04-26T19:37:12.862Z,9.10
2019-04-26T19:39:42.600Z,9.57
2019-04-26T19:42:11.780Z,7.20
2019-04-26T19:44:39.857Z,6.33
2019-04-26T19:47:17.439Z,4.67
2019-04-26T19:50:10.304Z,5.13
2019-04-26T19:52:52.967Z,8.73
2019-04-26T19:55:41.840Z,8.33
2019-04-26T19:58:16.157Z,5.77
2019-04-26T20:00:43.472Z,6.87
2019-04-26T20:03:13.385Z,31.60
2019-04-26T20:05:44.209Z,12.57
2019-04-26T20:08:12.047Z,6.13
2019-04-26T20:10:46.397Z,5.10
2019-04-26T20:13:16.717Z,4.37
2019-04-26T20:16:15.291Z,4.40
2019-04-26T20:18:42.218Z,3.60
2019-04-26T20:21:15.063Z,3.40
2019-04-26T20:23:45.884Z,3.27
2019-04-26T20:26:25.369Z,3.50
2019-04-26T20:28:59.157Z,3.33
2019-04-26T20:31:56.513Z,3.43
2019-04-26T20:34:27.357Z,3.37
2019-04-26T20:36:57.177Z,3.90
2019-04-26T20:39:26.346Z,3.20
2019-04-26T20:42:01.980Z,3.17
2019-04-26T20:44:39.171Z,4.33
2019-04-26T20:46:59.035Z,3.83
2019-04-26T20:49:32.175Z,3.60
2019-04-26T20:52:01.901Z,3.40
2019-04-26T20:54:34.775Z,3.67
2019-04-26T20:57:05.133Z,3.10
2019-04-26T20:59:36.319Z,3.67
2019-04-26T21:02:08.076Z,3.30
2019-04-26T21:04:38.449Z,3.20
2019-04-26T21:07:06.763Z,3.67
2019-04-26T21:09:40.832Z,3.70
2019-04-26T21:12:07.439Z,3.93
2019-04-26T21:14:47.810Z,3.77
2019-04-26T21:17:28.878Z,3.40
2019-04-26T21:20:02.168Z,3.87
2019-04-26T21:22:35.753Z,3.90
2019-04-26T21:25:11.836Z,4.17
2019-04-26T21:27:58.293Z,3.63
2019-04-26T21:30:38.486Z,4.10
2019-04-26T21:33:12.903Z,3.40
2019-04-26T21:35:52.991Z,3.50
2019-04-26T21:38:40.442Z,3.73
2019-04-26T21:41:14.053Z,3.70
2019-04-26T21:43:43.821Z,3.70
2019-04-26T21:46:18.653Z,3.77
2019-04-26T21:48:44.847Z,4.03
2019-04-26T21:51:16.234Z,3.27
2019-04-26T21:53:46.484Z,4.23
2019-04-26T21:56:17.308Z,3.70
2019-04-26T21:58:46.046Z,4.63
2019-04-26T22:01:20.482Z,3.90
2019-04-26T22:03:54.229Z,4.93
2019-04-26T22:06:19.857Z,3.93
2019-04-26T22:09:05.127Z,3.50
2019-04-26T22:11:33.518Z,4.90
2019-04-26T22:14:06.129Z,4.37
2019-04-26T22:16:48.891Z,4.17
2019-04-26T22:19:39.197Z,4.77
2019-04-26T22:22:41.472Z,4.63
2019-04-26T22:25:08.332Z,4.57
2019-04-26T22:27:36.363Z,4.23
2019-04-26T22:30:08.366Z,4.13
2019-04-26T22:32:36.410Z,3.70
2019-04-26T22:35:04.594Z,3.97
2019-04-26T22:37:33.729Z,3.87
2019-04-26T22:40:03.578Z,3.87
2019-04-26T22:42:40.031Z,4.10
2019-04-26T22:45:20.889Z,4.23
2019-04-26T22:47:54.354Z,3.83
2019-04-26T22:50:24.915Z,4.27
2019-04-26T22:52:53.136Z,3.87
2019-04-26T22:55:27.089Z,3.70
2019-04-26T22:57:53.044Z,4.00
2019-04-26T23:00:27.916Z,4.27
2019-04-26T23:02:53.328Z,4.53
2019-04-26T23:05:23.032Z,4.03
2019-04-26T23:07:54.715Z,3.83
2019-04-26T23:10:28.232Z,3.67
2019-04-26T23:13:17.989Z,4.80
2019-04-26T23:16:11.170Z,4.10
2019-04-26T23:18:47.286Z,3.97
2019-04-26T23:21:25.049Z,4.30
2019-04-26T23:23:53.467Z,3.60
2019-04-26T23:26:23.054Z,3.90
2019-04-26T23:28:51.273Z,4.20
2019-04-26T23:31:19.264Z,4.63
2019-04-26T23:33:47.215Z,3.90
2019-04-26T23:36:18.284Z,4.67
2019-04-26T23:38:45.026Z,3.57
2019-04-26T23:41:14.175Z,3.60
2019-04-26T23:43:42.390Z,4.00
2019-04-26T23:46:10.443Z,3.60
2019-04-26T23:48:38.397Z,4.03
2019-04-26T23:51:08.374Z,3.83
2019-04-26T23:53:36.192Z,3.50
2019-04-26T23:56:04.505Z,3.60
2019-04-26T23:58:32.499Z,3.33
